createdAt,value
2023-02-02T00:02:02.695Z,5.87
2023-02-02T00:04:37.643Z,5.87
2023-02-02T00:07:11.143Z,5.84
2023-02-02T00:09:46.348Z,5.88
2023-02-02T00:12:19.848Z,5.85
2023-02-02T00:14:53.663Z,5.85
2023-02-02T00:17:27.242Z,5.86
2023-02-02T00:20:01.040Z,5.90
2023-02-02T00:22:35.330Z,5.86
2023-02-02T00:25:11.327Z,5.92
2023-02-02T00:27:45.020Z,5.97
2023-02-02T00:30:19.016Z,5.98
2023-02-02T00:32:53.192Z,6.01
2023-02-02T00:35:27.103Z,5.96
2023-02-02T00:38:00.603Z,6.05
2023-02-02T00:40:35.738Z,6.06
2023-02-02T00:43:10.739Z,6.04
2023-02-02T00:45:43.680Z,6.07
2023-02-02T00:48:17.225Z,6.09
2023-02-02T00:50:50.981Z,6.11
2023-02-02T00:53:24.626Z,6.16
2023-02-02T00:55:59.794Z,6.02
2023-02-02T00:58:33.314Z,6.10
2023-02-02T01:01:07.264Z,6.02
2023-02-02T01:03:40.880Z,6.03
2023-02-02T01:06:14.628Z,6.02
2023-02-02T01:08:48.307Z,6.06
2023-02-02T01:11:23.611Z,6.06
2023-02-02T01:13:57.215Z,6.02
2023-02-02T01:16:31.112Z,6.05
2023-02-02T01:19:04.999Z,5.94
2023-02-02T01:21:38.833Z,5.97
2023-02-02T01:24:12.580Z,6.00
2023-02-02T01:26:47.763Z,5.91
2023-02-02T01:29:21.361Z,5.89
2023-02-02T01:31:55.206Z,5.82
2023-02-02T01:34:28.929Z,5.76
2023-02-02T01:37:02.827Z,5.67
2023-02-02T01:39:36.912Z,5.73
2023-02-02T01:42:15.894Z,5.76
2023-02-02T01:45:08.288Z,5.80
2023-02-02T01:47:48.928Z,5.75
2023-02-02T01:50:26.391Z,5.73
2023-02-02T01:53:03.183Z,5.68
2023-02-02T01:55:40.774Z,5.55
2023-02-02T01:58:19.246Z,5.46
2023-02-02T02:00:53.956Z,5.46
2023-02-02T02:03:31.981Z,5.40
2023-02-02T02:06:09.688Z,5.46
2023-02-02T02:08:52.185Z,5.51
2023-02-02T02:11:26.148Z,5.52
2023-02-02T02:14:32.821Z,5.46
2023-02-02T02:17:21.619Z,5.44
2023-02-02T02:20:42.770Z,5.45
2023-02-02T02:24:16.443Z,5.42
2023-02-02T02:27:15.537Z,5.47
2023-02-02T02:30:02.114Z,5.50
2023-02-02T02:32:42.065Z,5.36
2023-02-02T02:35:28.429Z,5.33
2023-02-02T02:38:10.653Z,5.30
2023-02-02T02:40:49.951Z,5.29
2023-02-02T02:43:28.585Z,5.26
2023-02-02T02:46:03.663Z,5.25
2023-02-02T02:48:38.863Z,5.19
2023-02-02T02:51:50.948Z,5.10
2023-02-02T02:54:30.371Z,5.09
2023-02-02T02:57:16.524Z,5.14
2023-02-02T02:59:56.887Z,5.14
2023-02-02T03:02:41.383Z,5.24
2023-02-02T03:05:32.801Z,5.26
2023-02-02T03:08:12.384Z,5.28
2023-02-02T03:10:47.909Z,5.31
2023-02-02T03:13:21.606Z,5.41
2023-02-02T03:15:56.064Z,5.43
2023-02-02T03:18:32.031Z,5.42
2023-02-02T03:21:07.493Z,5.57
2023-02-02T03:23:41.056Z,5.61
2023-02-02T03:26:15.094Z,5.60
2023-02-02T03:28:49.335Z,5.51
2023-02-02T03:31:23.272Z,5.41
2023-02-02T03:33:58.079Z,5.29
2023-02-02T03:36:33.291Z,5.18
2023-02-02T03:39:06.889Z,5.21
2023-02-02T03:41:40.775Z,5.26
2023-02-02T03:44:14.326Z,5.36
2023-02-02T03:46:48.168Z,5.38
2023-02-02T03:49:22.240Z,5.35
2023-02-02T03:51:57.318Z,5.32
2023-02-02T03:54:30.922Z,5.38
2023-02-02T03:57:04.844Z,5.39
2023-02-02T03:59:38.488Z,5.38
2023-02-02T04:02:12.325Z,5.45
2023-02-02T04:04:45.947Z,5.42
2023-02-02T04:07:21.034Z,5.42
2023-02-02T04:09:54.706Z,5.40
2023-02-02T04:12:28.417Z,5.37
2023-02-02T04:15:02.051Z,5.39
2023-02-02T04:17:36.337Z,5.37
2023-02-02T04:20:11.421Z,5.42
2023-02-02T04:22:46.765Z,5.41
2023-02-02T04:25:20.390Z,5.40
2023-02-02T04:27:54.162Z,5.45
2023-02-02T04:30:27.703Z,5.37
2023-02-02T04:33:01.486Z,5.43
2023-02-02T04:35:35.211Z,5.42
2023-02-02T04:38:10.552Z,5.38
2023-02-02T04:40:46.275Z,5.38
2023-02-02T04:43:20.264Z,5.28
2023-02-02T04:45:57.401Z,5.18
2023-02-02T04:48:31.585Z,5.16
2023-02-02T04:51:07.587Z,5.07
2023-02-02T04:53:43.908Z,5.02
2023-02-02T04:56:19.249Z,4.99
2023-02-02T04:58:55.809Z,4.99
2023-02-02T05:01:30.786Z,5.00
2023-02-02T05:04:04.826Z,5.03
2023-02-02T05:06:38.566Z,5.03
2023-02-02T05:09:15.000Z,5.05
2023-02-02T05:11:48.743Z,5.06
2023-02-02T05:14:22.681Z,5.08
2023-02-02T05:16:56.348Z,5.11
2023-02-02T05:19:30.194Z,5.21
2023-02-02T05:22:03.884Z,5.11
2023-02-02T05:24:39.053Z,5.11
2023-02-02T05:27:12.649Z,5.00
2023-02-02T05:29:48.443Z,4.95
2023-02-02T05:32:22.040Z,4.93
2023-02-02T05:34:55.836Z,4.98
2023-02-02T05:37:29.551Z,4.93
2023-02-02T05:40:06.123Z,4.91
2023-02-02T05:42:39.950Z,4.89
2023-02-02T05:45:13.859Z,4.83
2023-02-02T05:47:47.612Z,4.83
2023-02-02T05:50:21.437Z,4.88
2023-02-02T05:52:55.029Z,4.89
2023-02-02T05:55:30.144Z,4.94
2023-02-02T05:58:03.800Z,4.95
2023-02-02T06:00:37.859Z,4.94
2023-02-02T06:03:13.059Z,4.96
2023-02-02T06:05:46.985Z,4.99
2023-02-02T06:08:20.669Z,5.01
2023-02-02T06:10:55.957Z,5.02
2023-02-02T06:13:29.725Z,5.01
2023-02-02T06:16:03.581Z,5.07
2023-02-02T06:18:37.881Z,5.11
2023-02-02T06:21:12.604Z,5.12
2023-02-02T06:23:46.711Z,5.18
2023-02-02T06:26:21.896Z,5.19
2023-02-02T06:28:56.253Z,5.19
2023-02-02T06:31:29.990Z,5.19
2023-02-02T06:34:03.809Z,5.18
2023-02-02T06:36:37.628Z,5.20
2023-02-02T06:39:11.212Z,5.25
2023-02-02T06:41:48.361Z,5.22
2023-02-02T06:44:21.893Z,5.27
2023-02-02T06:46:55.551Z,5.26
2023-02-02T06:49:29.298Z,5.27
2023-02-02T06:52:03.166Z,5.31
2023-02-02T06:54:36.795Z,5.27
2023-02-02T06:57:11.876Z,5.29
2023-02-02T06:59:45.477Z,5.31
2023-02-02T07:02:19.360Z,5.27
2023-02-02T07:04:53.185Z,5.20
2023-02-02T07:07:27.099Z,5.15
2023-02-02T07:10:00.718Z,5.14
2023-02-02T07:12:35.961Z,5.14
2023-02-02T07:15:10.863Z,5.16
2023-02-02T07:17:44.717Z,5.16
2023-02-02T07:20:18.829Z,5.16
2023-02-02T07:22:52.692Z,5.24
2023-02-02T07:25:26.594Z,5.17
2023-02-02T07:28:01.869Z,5.11
2023-02-02T07:30:35.578Z,5.13
2023-02-02T07:33:09.429Z,5.06
2023-02-02T07:35:43.152Z,5.06
2023-02-02T07:38:17.127Z,5.04
2023-02-02T07:40:50.777Z,5.10
2023-02-02T07:43:26.367Z,5.10
2023-02-02T07:46:02.913Z,5.13
2023-02-02T07:48:37.736Z,5.22
2023-02-02T07:51:14.746Z,5.34
2023-02-02T07:53:50.347Z,5.38
2023-02-02T07:56:26.079Z,5.48
2023-02-02T07:59:01.617Z,5.51
2023-02-02T08:01:35.211Z,5.52
2023-02-02T08:04:09.063Z,5.41
2023-02-02T08:06:42.730Z,5.38
2023-02-02T08:09:16.508Z,5.32
2023-02-02T08:11:50.207Z,5.30
2023-02-02T08:14:25.367Z,5.36
2023-02-02T08:16:58.893Z,5.44
2023-02-02T08:19:32.696Z,5.52
2023-02-02T08:22:06.413Z,5.53
2023-02-02T08:24:42.446Z,5.53
2023-02-02T08:27:17.301Z,5.48
2023-02-02T08:29:52.727Z,5.55
2023-02-02T08:32:26.618Z,5.66
2023-02-02T08:35:00.498Z,5.67
2023-02-02T08:37:34.187Z,5.67
2023-02-02T08:40:18.656Z,5.67
2023-02-02T08:42:56.566Z,5.64
2023-02-02T08:46:01.276Z,5.66
2023-02-02T08:48:25.626Z,5.65
2023-02-02T08:51:00.280Z,5.68
2023-02-02T08:53:34.344Z,5.77
2023-02-02T08:56:10.995Z,5.77
2023-02-02T08:58:47.094Z,5.83
2023-02-02T09:01:25.156Z,5.82
2023-02-02T09:04:01.710Z,5.87
2023-02-02T09:06:37.396Z,5.92
2023-02-02T09:09:12.732Z,5.96
2023-02-02T09:11:46.646Z,6.18
2023-02-02T09:14:20.613Z,6.20
2023-02-02T09:16:55.945Z,6.06
2023-02-02T09:19:29.605Z,6.00
2023-02-02T09:22:03.361Z,5.97
2023-02-02T09:24:36.984Z,5.94
2023-02-02T09:27:11.240Z,5.98
2023-02-02T09:29:44.853Z,6.08
2023-02-02T09:32:19.969Z,6.09
2023-02-02T09:34:53.611Z,6.13
2023-02-02T09:37:30.606Z,6.19
2023-02-02T09:40:08.256Z,6.22
2023-02-02T09:43:04.447Z,6.23
2023-02-02T09:45:48.851Z,6.21
2023-02-02T09:48:38.020Z,6.27
2023-02-02T09:51:17.433Z,6.33
2023-02-02T09:53:56.556Z,6.36
2023-02-02T09:56:35.622Z,6.43
2023-02-02T09:59:21.834Z,6.44
2023-02-02T10:01:58.878Z,6.41
2023-02-02T10:04:37.273Z,6.48
2023-02-02T10:07:15.139Z,6.50
2023-02-02T10:09:55.513Z,6.55
2023-02-02T10:12:37.093Z,6.59
2023-02-02T10:15:20.453Z,6.65
2023-02-02T10:18:00.234Z,6.69
2023-02-02T10:20:43.704Z,6.71
2023-02-02T10:23:26.081Z,6.76
2023-02-02T10:26:09.606Z,6.79
2023-02-02T10:28:50.469Z,6.84
2023-02-02T10:31:42.440Z,6.96
2023-02-02T10:34:23.223Z,7.15
2023-02-02T10:37:10.318Z,7.43
2023-02-02T10:39:58.291Z,7.66
2023-02-02T10:42:41.072Z,7.64
2023-02-02T10:45:18.807Z,7.61
2023-02-02T10:47:52.721Z,7.64
2023-02-02T10:50:28.061Z,7.55
2023-02-02T10:53:12.409Z,7.71
2023-02-02T10:55:54.712Z,7.93
2023-02-02T10:58:31.252Z,8.03
2023-02-02T11:01:07.953Z,8.10
2023-02-02T11:03:41.813Z,8.18
2023-02-02T11:06:34.484Z,8.11
2023-02-02T11:09:15.092Z,8.08
2023-02-02T11:11:52.834Z,8.10
2023-02-02T11:14:44.581Z,8.22
2023-02-02T11:17:21.642Z,8.25
2023-02-02T11:19:56.586Z,8.22
2023-02-02T11:22:34.047Z,8.13
2023-02-02T11:25:27.363Z,8.09
2023-02-02T11:28:06.429Z,7.96
2023-02-02T11:30:41.567Z,7.84
2023-02-02T11:33:28.427Z,7.77
2023-02-02T11:36:03.939Z,7.70
2023-02-02T11:38:37.467Z,7.72
2023-02-02T11:41:15.376Z,7.64
2023-02-02T11:43:52.397Z,7.61
2023-02-02T11:46:32.939Z,7.70
2023-02-02T11:49:16.588Z,7.77
2023-02-02T11:51:59.076Z,7.92
2023-02-02T11:54:34.583Z,8.05
2023-02-02T11:57:11.419Z,8.08
2023-02-02T11:59:46.568Z,8.02
2023-02-02T12:02:31.220Z,8.00
2023-02-02T12:05:32.853Z,7.94
2023-02-02T12:08:09.134Z,7.80
2023-02-02T12:10:48.711Z,7.82
2023-02-02T12:34:29.040Z,8.56
2023-02-02T12:37:13.634Z,8.51
2023-02-02T12:39:59.014Z,8.47
2023-02-02T12:42:48.924Z,8.50
2023-02-02T12:45:38.955Z,8.66
2023-02-02T12:48:27.855Z,8.79
2023-02-02T12:51:17.358Z,8.92
2023-02-02T12:54:33.484Z,8.78
2023-02-02T12:57:16.814Z,8.55
2023-02-02T13:00:14.973Z,8.34
2023-02-02T13:03:06.168Z,8.03
2023-02-02T13:05:59.873Z,7.84
2023-02-02T13:08:43.035Z,7.76
2023-02-02T13:11:30.917Z,7.68
2023-02-02T13:14:10.774Z,7.59
2023-02-02T13:16:49.876Z,7.51
2023-02-02T13:19:30.006Z,7.57
2023-02-02T13:22:07.776Z,7.61
2023-02-02T13:24:45.998Z,7.64
2023-02-02T13:27:22.592Z,7.61
2023-02-02T13:30:02.826Z,7.57
2023-02-02T13:32:39.935Z,7.50
2023-02-02T13:35:18.867Z,7.45
2023-02-02T13:37:57.887Z,7.48
2023-02-02T13:40:37.635Z,7.53
2023-02-02T13:43:26.589Z,7.64
2023-02-02T13:46:09.289Z,7.71
2023-02-02T13:48:53.784Z,7.86
2023-02-02T13:51:44.907Z,7.90
2023-02-02T13:54:45.833Z,7.90
2023-02-02T13:57:33.000Z,7.97
2023-02-02T14:00:16.917Z,7.96
2023-02-02T14:02:53.778Z,8.02
2023-02-02T14:05:29.882Z,8.09
2023-02-02T14:08:07.360Z,8.16
2023-02-02T14:10:45.447Z,8.18
2023-02-02T14:13:40.986Z,8.16
2023-02-02T14:16:23.030Z,8.16
2023-02-02T14:18:58.937Z,8.12
2023-02-02T14:22:00.847Z,8.15
2023-02-02T14:24:46.884Z,8.12
2023-02-02T14:28:02.378Z,8.16
2023-02-02T14:30:39.452Z,8.13
2023-02-02T14:33:28.718Z,8.12
2023-02-02T14:36:05.235Z,8.04
2023-02-02T14:39:04.288Z,7.97
2023-02-02T14:42:16.621Z,7.94
2023-02-02T14:45:15.764Z,7.84
2023-02-02T14:47:54.354Z,7.74
2023-02-02T14:50:36.780Z,7.68
2023-02-02T14:53:20.130Z,7.65
2023-02-02T14:55:59.209Z,7.56
2023-02-02T14:58:34.927Z,7.51
2023-02-02T15:01:14.495Z,7.44
2023-02-02T15:03:52.964Z,7.41
2023-02-02T15:06:31.509Z,7.34
2023-02-02T15:09:27.821Z,7.32
2023-02-02T15:12:27.862Z,7.28
2023-02-02T15:15:13.878Z,7.27
2023-02-02T15:18:03.795Z,7.19
2023-02-02T15:20:45.298Z,7.11
2023-02-02T15:23:28.436Z,7.03
2023-02-02T15:26:07.801Z,6.99
2023-02-02T15:28:46.381Z,6.94
2023-02-02T15:31:28.694Z,6.96
2023-02-02T15:34:10.536Z,6.95
2023-02-02T15:36:49.338Z,6.88
2023-02-02T15:39:27.354Z,6.82
2023-02-02T15:42:21.724Z,6.75
2023-02-02T15:44:55.919Z,6.68
2023-02-02T15:47:35.024Z,6.67
2023-02-02T15:50:20.031Z,6.61
2023-02-02T15:52:56.439Z,6.57
2023-02-02T15:55:34.232Z,6.51
2023-02-02T15:58:23.824Z,6.42
2023-02-02T16:01:00.864Z,6.37
2023-02-02T16:03:46.502Z,6.27
2023-02-02T16:06:21.099Z,6.19
2023-02-02T16:08:56.163Z,6.13
2023-02-02T16:11:31.006Z,6.09
2023-02-02T16:14:06.706Z,6.08
2023-02-02T16:16:41.115Z,6.07
2023-02-02T16:19:17.532Z,6.02
2023-02-02T16:21:55.366Z,5.98
2023-02-02T16:24:32.923Z,5.93
2023-02-02T16:27:10.144Z,5.94
2023-02-02T16:29:44.446Z,5.91
2023-02-02T16:32:28.073Z,5.90
2023-02-02T16:35:05.748Z,5.89
2023-02-02T16:37:39.583Z,5.85
2023-02-02T16:40:29.045Z,5.80
2023-02-02T16:43:07.363Z,5.74
2023-02-02T16:45:46.498Z,5.71
2023-02-02T16:48:33.165Z,5.69
2023-02-02T16:51:11.405Z,5.69
2023-02-02T16:53:48.245Z,5.68
2023-02-02T16:56:30.017Z,5.64
2023-02-02T16:59:07.562Z,5.61
2023-02-02T17:01:45.112Z,5.60
2023-02-02T17:04:23.072Z,5.56
2023-02-02T17:06:59.342Z,5.51
2023-02-02T17:09:37.366Z,5.45
2023-02-02T17:12:33.663Z,5.39
2023-02-02T17:15:28.800Z,5.33
2023-02-02T17:18:03.975Z,5.29
2023-02-02T17:20:40.154Z,5.25
2023-02-02T17:23:17.774Z,5.23
2023-02-02T17:25:52.236Z,5.18
2023-02-02T17:28:29.623Z,5.17
2023-02-02T17:31:07.207Z,5.16
2023-02-02T17:33:43.355Z,5.15
2023-02-02T17:36:17.184Z,5.18
2023-02-02T17:38:50.921Z,5.20
2023-02-02T17:41:24.777Z,5.22
2023-02-02T17:43:59.724Z,5.25
2023-02-02T17:46:35.073Z,5.29
2023-02-02T17:49:08.835Z,5.34
2023-02-02T17:51:43.465Z,5.39
2023-02-02T17:54:17.852Z,5.45
2023-02-02T17:56:51.627Z,5.56
2023-02-02T17:59:26.948Z,5.60
2023-02-02T18:02:01.047Z,5.63
2023-02-02T18:04:36.802Z,5.66
2023-02-02T18:07:11.198Z,5.66
2023-02-02T18:09:44.699Z,5.66
2023-02-02T18:12:19.658Z,5.66
2023-02-02T18:14:54.730Z,5.67
2023-02-02T18:17:28.454Z,5.73
2023-02-02T18:20:02.057Z,5.78
2023-02-02T18:22:35.911Z,5.78
2023-02-02T18:25:09.799Z,5.78
2023-02-02T18:27:43.845Z,5.79
2023-02-02T18:30:19.190Z,5.80
2023-02-02T18:32:53.521Z,5.82
2023-02-02T18:35:28.449Z,5.83
2023-02-02T18:38:02.432Z,5.80
2023-02-02T18:40:36.003Z,5.83
2023-02-02T18:43:09.882Z,5.81
2023-02-02T18:45:44.959Z,5.82
2023-02-02T18:48:19.846Z,5.81
2023-02-02T18:50:53.427Z,5.86
2023-02-02T18:53:27.525Z,5.87
2023-02-02T18:56:05.509Z,5.89
2023-02-02T18:58:39.923Z,5.85
2023-02-02T19:01:17.186Z,5.88
2023-02-02T19:03:52.560Z,5.90
2023-02-02T19:06:44.221Z,5.87
2023-02-02T19:09:18.447Z,5.89
2023-02-02T19:11:54.842Z,5.89
2023-02-02T19:14:32.271Z,5.83
2023-02-02T19:17:21.235Z,5.81
2023-02-02T19:20:00.998Z,5.79
2023-02-02T19:22:34.787Z,5.75
2023-02-02T19:25:13.812Z,5.74
2023-02-02T19:27:47.516Z,5.71
2023-02-02T19:30:24.510Z,5.66
2023-02-02T19:32:59.763Z,5.67
2023-02-02T19:35:33.770Z,5.66
2023-02-02T19:38:13.092Z,5.66
2023-02-02T19:40:47.329Z,5.66
2023-02-02T19:43:26.754Z,5.64
2023-02-02T19:46:01.268Z,5.63
2023-02-02T19:48:39.838Z,5.64
2023-02-02T19:51:41.708Z,5.65
2023-02-02T19:54:29.500Z,5.62
2023-02-02T19:57:18.181Z,5.63
2023-02-02T19:59:53.365Z,5.60
2023-02-02T20:02:57.002Z,5.62
2023-02-02T20:05:35.725Z,5.63
2023-02-02T20:08:24.177Z,5.64
2023-02-02T20:11:01.564Z,5.60
2023-02-02T20:13:39.842Z,5.53
2023-02-02T20:16:19.112Z,5.48
2023-02-02T20:18:55.073Z,5.49
2023-02-02T20:21:35.589Z,5.46
2023-02-02T20:24:18.569Z,5.48
2023-02-02T20:26:53.444Z,5.49
2023-02-02T20:29:31.133Z,5.46
2023-02-02T20:32:06.026Z,5.47
2023-02-02T20:34:44.680Z,5.39
2023-02-02T20:37:25.128Z,5.30
2023-02-02T20:40:01.223Z,5.27
2023-02-02T20:42:35.287Z,5.21
2023-02-02T20:45:09.062Z,5.19
2023-02-02T20:47:42.685Z,5.17
2023-02-02T20:50:20.461Z,5.15
2023-02-02T20:52:55.777Z,5.15
2023-02-02T20:55:30.718Z,5.07
2023-02-02T20:58:05.177Z,5.03
2023-02-02T21:00:39.597Z,5.02
2023-02-02T21:03:14.159Z,5.03
2023-02-02T21:05:48.021Z,4.98
2023-02-02T21:08:23.038Z,4.94
2023-02-02T21:10:56.926Z,4.94
2023-02-02T21:13:31.016Z,4.93
2023-02-02T21:16:05.306Z,4.89
2023-02-02T21:18:39.077Z,4.88
2023-02-02T21:21:14.123Z,4.85
2023-02-02T21:23:51.305Z,4.85
2023-02-02T21:26:30.009Z,4.82
2023-02-02T21:29:03.740Z,4.82
2023-02-02T21:31:40.152Z,4.82
2023-02-02T21:34:13.761Z,4.81
2023-02-02T21:36:49.698Z,4.81
2023-02-02T21:39:28.598Z,4.77
2023-02-02T21:42:13.782Z,4.77
2023-02-02T21:44:53.595Z,4.74
2023-02-02T21:47:30.641Z,4.71
2023-02-02T21:50:15.132Z,4.69
2023-02-02T21:52:48.949Z,4.67
2023-02-02T21:55:36.739Z,4.68
2023-02-02T21:58:19.066Z,4.68
2023-02-02T22:00:53.460Z,4.66
2023-02-02T22:03:32.926Z,4.68
2023-02-02T22:06:19.270Z,4.64
2023-02-02T22:08:55.710Z,4.64
2023-02-02T22:11:37.008Z,4.63
2023-02-02T22:14:19.120Z,4.64
2023-02-02T22:16:54.503Z,4.61
2023-02-02T22:19:32.925Z,4.64
2023-02-02T22:22:17.861Z,4.61
2023-02-02T22:24:58.879Z,4.58
2023-02-02T22:27:41.556Z,4.60
2023-02-02T22:30:28.965Z,4.62
2023-02-02T22:33:02.983Z,4.58
2023-02-02T22:35:37.403Z,4.55
2023-02-02T22:38:11.638Z,4.55
2023-02-02T22:40:45.653Z,4.58
2023-02-02T22:43:21.786Z,4.54
2023-02-02T22:45:55.718Z,4.56
2023-02-02T22:48:29.668Z,4.59
2023-02-02T22:51:03.480Z,4.56
2023-02-02T22:53:37.067Z,4.54
2023-02-02T22:56:10.793Z,4.54
2023-02-02T22:58:45.865Z,4.52
2023-02-02T23:01:19.838Z,4.53
2023-02-02T23:03:53.533Z,4.52
2023-02-02T23:06:27.782Z,4.53
2023-02-02T23:09:01.500Z,4.51
2023-02-02T23:11:35.695Z,4.52
2023-02-02T23:14:10.709Z,4.55
2023-02-02T23:16:44.545Z,4.52
2023-02-02T23:19:18.171Z,4.54
2023-02-02T23:21:51.957Z,4.62
2023-02-02T23:24:25.975Z,4.64
2023-02-02T23:26:59.753Z,4.61
2023-02-02T23:29:34.738Z,4.62
2023-02-02T23:32:08.824Z,4.60
2023-02-02T23:34:42.582Z,4.63
2023-02-02T23:37:16.646Z,4.67
2023-02-02T23:39:50.308Z,4.70
2023-02-02T23:42:25.878Z,4.74
2023-02-02T23:45:01.448Z,4.76
2023-02-02T23:47:36.002Z,4.80
2023-02-02T23:50:10.945Z,4.83
2023-02-02T23:52:44.839Z,4.86
2023-02-02T23:55:18.431Z,4.95
2023-02-02T23:57:52.274Z,4.99
